Time;durP1;ratioP1;P1;durP2;ratioP2;P2;SDS_P1;SDS_P2;PMS_P1;PMS_P2;Temp;Humidity;BMP_temperature;BMP_pressure;BME280_temperature;BME280_humidity;BME280_pressure;Samples;Min_cycle;Max_cycle;Signal;HPM_P1;HPM_P2
2023/10/29 00:00:23;;;;;;;19.23;15.50;;;11.50;99.90;;;;;;6190571;23;20778;-92
2023/10/29 00:02:49;;;;;;;19.27;15.55;;;11.20;99.90;;;;;;6187240;23;20382;-95
2023/10/29 00:05:15;;;;;;;16.02;13.15;;;11.40;99.90;;;;;;6189238;23;20400;-93
2023/10/29 00:07:40;;;;;;;18.80;14.38;;;11.30;99.90;;;;;;6193953;23;20368;-94
2023/10/29 00:10:07;;;;;;;17.53;13.77;;;11.30;99.90;;;;;;6198419;23;20471;-95
2023/10/29 00:12:41;;;;;;;15.35;13.45;;;11.30;99.90;;;;;;6192315;23;20411;-94
2023/10/29 00:15:28;;;;;;;16.45;14.60;;;11.40;99.90;;;;;;6185823;23;20410;-95
2023/10/29 00:17:53;;;;;;;18.80;14.85;;;11.30;99.90;;;;;;6166187;23;20461;-95
2023/10/29 00:20:28;;;;;;;20.55;15.73;;;11.60;99.90;;;;;;6190869;23;20670;-95
2023/10/29 00:22:53;;;;;;;21.52;16.33;;;11.30;99.90;;;;;;6187548;23;20451;-94
2023/10/29 00:25:20;;;;;;;17.90;14.10;;;11.60;99.90;;;;;;6187381;23;20887;-94
2023/10/29 00:27:51;;;;;;;17.97;14.60;;;11.40;99.90;;;;;;6189605;23;20455;-94
2023/10/29 00:30:17;;;;;;;15.48;13.38;;;11.30;99.90;;;;;;6157856;23;20379;-92
2023/10/29 00:32:43;;;;;;;18.15;14.20;;;12.10;99.90;;;;;;6159837;23;20462;-93
2023/10/29 00:35:18;;;;;;;16.13;14.02;;;11.30;99.90;;;;;;6162971;23;21028;-95
2023/10/29 00:37:46;;;;;;;18.13;13.57;;;11.20;99.90;;;;;;6163967;23;20376;-95
2023/10/29 00:40:12;;;;;;;16.83;13.88;;;11.30;99.90;;;;;;6166033;23;20372;-93
2023/10/29 00:42:37;;;;;;;15.30;13.03;;;11.30;99.90;;;;;;6162517;23;20522;-94
2023/10/29 00:45:03;;;;;;;16.95;12.80;;;11.70;99.90;;;;;;6159717;23;20376;-95
2023/10/29 00:47:51;;;;;;;18.70;13.95;;;11.20;99.90;;;;;;6183031;23;20442;-94
2023/10/29 00:50:34;;;;;;;15.32;12.95;;;11.30;99.90;;;;;;6164965;23;20394;-95
2023/10/29 00:53:00;;;;;;;15.30;12.80;;;11.30;99.90;;;;;;6166330;23;20456;-95
2023/10/29 00:55:38;;;;;;;17.63;13.17;;;11.50;99.90;;;;;;6161796;23;20448;-93
2023/10/29 00:58:10;;;;;;;16.65;13.60;;;11.60;99.90;;;;;;6169291;23;20383;-94
2023/10/29 01:04:25;;;;;;;16.90;14.23;;;11.40;99.90;;;;;;6171738;22;20403;-94
2023/10/29 01:07:24;;;;;;;18.05;13.90;;;11.40;99.90;;;;;;6110350;23;20402;-95
2023/10/29 01:10:17;;;;;;;15.88;13.23;;;11.40;99.90;;;;;;6164968;23;20373;-94
2023/10/29 01:12:45;;;;;;;14.73;12.63;;;11.50;99.90;;;;;;6182940;23;20932;-94
2023/10/29 01:20:56;;;;;;;18.27;14.83;;;11.60;99.90;;;;;;6167094;22;20419;31
2023/10/29 01:23:25;;;;;;;14.77;12.75;;;11.60;99.90;;;;;;6072888;23;20390;-95
2023/10/29 01:26:10;;;;;;;17.25;13.55;;;11.60;99.90;;;;;;6085658;23;20413;-95
2023/10/29 01:28:42;;;;;;;12.15;10.95;;;11.90;99.90;;;;;;6098563;23;20397;-96
2023/10/29 01:31:08;;;;;;;13.95;11.73;;;11.90;99.90;;;;;;6101730;23;20979;-94
2023/10/29 01:33:33;;;;;;;14.57;12.48;;;12.00;99.90;;;;;;6093756;23;20378;-92
2023/10/29 01:35:59;;;;;;;15.17;13.33;;;11.90;99.90;;;;;;6093163;23;20375;-94
2023/10/29 01:38:25;;;;;;;14.73;13.18;;;12.00;99.90;;;;;;6100573;23;20391;-93
2023/10/29 01:40:56;;;;;;;15.87;14.20;;;12.10;99.90;;;;;;6106031;23;20377;-93
2023/10/29 01:43:31;;;;;;;14.63;12.50;;;11.70;99.90;;;;;;6106240;23;20383;-95
2023/10/29 01:46:43;;;;;;;15.03;13.53;;;11.90;99.90;;;;;;6063921;23;20397;-95
2023/10/29 01:49:35;;;;;;;18.52;15.27;;;12.00;99.90;;;;;;6142791;23;20381;-96
2023/10/29 01:55:46;;;;;;;13.05;11.75;;;12.30;99.90;;;;;;6171824;23;20399;-95
2023/10/29 01:58:16;;;;;;;19.15;16.05;;;12.10;99.90;;;;;;6178101;23;20392;-95
2023/10/29 02:02:05;;;;;;;19.83;15.82;;;12.60;99.90;;;;;;6172970;23;20486;-95
2023/10/29 02:10:44;;;;;;;14.70;13.10;;;12.20;99.90;;;;;;6207925;23;20407;-96
2023/10/29 02:13:16;;;;;;;13.38;12.00;;;12.00;99.90;;;;;;6206828;23;20422;-95
2023/10/29 02:19:12;;;;;;;11.55;9.05;;;12.40;99.90;;;;;;6223050;23;20391;-95
2023/10/29 02:21:41;;;;;;;10.70;9.20;;;12.30;99.90;;;;;;6191419;23;20676;-95
2023/10/29 02:26:42;;;;;;;8.43;7.13;;;12.30;99.90;;;;;;6216829;23;20425;-94
2023/10/29 02:29:08;;;;;;;8.60;6.68;;;12.80;99.90;;;;;;6195523;23;20383;-93
2023/10/29 02:31:47;;;;;;;7.67;5.77;;;12.50;99.90;;;;;;6206479;23;20368;-96
2023/10/29 02:43:58;;;;;;;6.57;4.27;;;12.50;99.90;;;;;;6213599;23;20407;-96
2023/10/29 02:46:27;;;;;;;4.88;2.50;;;12.50;99.90;;;;;;6191854;23;20400;-92
2023/10/29 02:48:59;;;;;;;4.93;3.08;;;12.60;99.90;;;;;;6201519;23;20374;-96
2023/10/29 02:51:48;;;;;;;3.97;2.08;;;12.60;99.90;;;;;;6154908;23;20417;-95
2023/10/29 02:54:28;;;;;;;4.07;1.75;;;13.10;99.90;;;;;;6206661;23;20423;-96
2023/10/29 02:57:13;;;;;;;5.07;1.73;;;12.60;99.90;;;;;;6172958;23;20433;-94
2023/10/29 02:59:51;;;;;;;3.05;1.00;;;12.70;99.90;;;;;;6223030;23;20418;-95
2023/10/29 03:02:30;;;;;;;;;;;;;;;;;;;;;
2023/10/29 03:08:25;;;;;;;2.97;1.10;;;12.70;99.90;;;;;;6215638;23;20399;-95
2023/10/29 03:13:38;;;;;;;3.72;0.98;;;12.70;99.90;;;;;;6221533;23;20836;-93
2023/10/29 03:16:13;;;;;;;2.55;0.70;;;12.70;99.90;;;;;;6189082;23;20360;-96
2023/10/29 03:18:57;;;;;;;3.33;0.98;;;12.70;99.90;;;;;;6189993;23;20951;-93
2023/10/29 03:21:26;;;;;;;2.97;0.80;;;12.70;99.90;;;;;;6192625;23;20375;-95
2023/10/29 03:23:55;;;;;;;4.18;0.73;;;12.50;99.90;;;;;;6199075;23;20463;-96
2023/10/29 03:26:20;;;;;;;3.60;0.90;;;13.40;99.90;;;;;;6188009;23;20402;-91
2023/10/29 03:28:55;;;;;;;4.03;0.90;;;12.50;99.90;;;;;;6191578;23;20399;-94
2023/10/29 03:31:35;;;;;;;2.72;0.60;;;12.80;99.90;;;;;;6217233;23;20383;-96
2023/10/29 03:34:18;;;;;;;2.78;0.80;;;13.00;99.90;;;;;;6193983;23;20368;-96
2023/10/29 03:36:46;;;;;;;3.78;0.60;;;12.90;99.90;;;;;;6192814;23;20376;-95
2023/10/29 03:39:12;;;;;;;2.90;0.52;;;12.80;99.90;;;;;;6195309;23;20720;-94
2023/10/29 03:41:42;;;;;;;3.17;0.57;;;12.90;99.90;;;;;;6200614;23;20406;-96
2023/10/29 03:44:41;;;;;;;3.20;0.57;;;13.00;99.90;;;;;;6201189;23;20390;-95
2023/10/29 03:47:17;;;;;;;2.67;0.60;;;12.80;99.90;;;;;;6130818;23;20396;-94
2023/10/29 03:50:01;;;;;;;3.10;0.50;;;13.00;99.90;;;;;;6194146;23;20375;-94
2023/10/29 03:52:26;;;;;;;3.20;0.57;;;12.50;99.90;;;;;;6199596;23;20368;-96
2023/10/29 03:54:52;;;;;;;2.33;0.40;;;12.70;99.90;;;;;;6205062;23;20387;-94
2023/10/29 04:03:58;;;;;;;1.83;0.50;;;12.70;99.90;;;;;;6230029;23;20398;-92
2023/10/29 04:06:25;;;;;;;1.75;0.40;;;13.00;99.90;;;;;;6203117;23;20378;-95
2023/10/29 04:12:14;;;;;;;1.80;0.40;;;12.50;99.90;;;;;;6218185;23;20392;-95
2023/10/29 04:14:42;;;;;;;2.10;0.30;;;13.20;99.90;;;;;;6198193;23;20469;-96
2023/10/29 04:17:12;;;;;;;2.50;0.40;;;12.90;99.90;;;;;;6196468;23;20383;-94
2023/10/29 04:19:37;;;;;;;2.23;0.33;;;12.90;99.90;;;;;;6170765;23;20385;-95
2023/10/29 04:22:16;;;;;;;;;;;;;;;;;;;;;
2023/10/29 04:24:42;;;;;;;2.35;0.30;;;13.00;99.90;;;;;;6217265;23;20865;-94
2023/10/29 04:27:34;;;;;;;3.75;0.50;;;13.30;99.90;;;;;;6190134;23;20391;-95
2023/10/29 04:30:02;;;;;;;1.83;0.28;;;13.00;99.90;;;;;;6163709;23;20387;-94
2023/10/29 04:32:35;;;;;;;4.03;0.20;;;12.70;99.90;;;;;;6173806;23;20427;-95
2023/10/29 04:35:01;;;;;;;3.25;0.30;;;13.00;99.90;;;;;;6162407;23;20375;-95
2023/10/29 04:43:10;;;;;;;1.97;0.30;;;12.10;99.90;;;;;;6233629;23;20390;-93
2023/10/29 04:51:12;;;;;;;2.03;0.32;;;11.90;99.90;;;;;;6081277;23;20401;-95
2023/10/29 04:54:15;;;;;;;1.67;0.20;;;11.90;99.90;;;;;;6054751;23;20373;-96
2023/10/29 05:03:59;;;;;;;1.48;0.17;;;12.00;99.90;;;;;;6226817;23;20378;-96
2023/10/29 05:17:49;;;;;;;1.55;0.20;;;11.80;99.90;;;;;;6125046;23;20424;-96
2023/10/29 05:20:15;;;;;;;2.90;0.20;;;11.80;99.90;;;;;;6097712;23;20377;-95
2023/10/29 05:23:20;;;;;;;1.35;0.20;;;11.90;99.90;;;;;;6108991;23;20483;31
2023/10/29 05:29:50;;;;;;;2.57;0.20;;;11.80;99.90;;;;;;6163608;23;20448;-96
2023/10/29 05:40:17;;;;;;;2.83;0.30;;;12.00;99.90;;;;;;6198748;23;20388;-94
2023/10/29 05:45:29;;;;;;;3.90;0.30;;;12.10;99.90;;;;;;6193987;23;20400;-93
2023/10/29 05:47:58;;;;;;;2.78;0.30;;;12.50;99.90;;;;;;6165726;23;20409;-95
2023/10/29 05:50:24;;;;;;;2.83;0.50;;;12.40;99.90;;;;;;6165582;23;20455;-95
2023/10/29 05:52:50;;;;;;;3.53;0.30;;;12.10;99.90;;;;;;6166362;23;20372;-95
2023/10/29 06:01:25;;;;;;;2.58;0.40;;;12.30;99.90;;;;;;6155520;23;20395;-94
2023/10/29 06:03:54;;;;;;;2.55;0.40;;;11.90;99.90;;;;;;6105568;23;20441;-96
2023/10/29 06:06:20;;;;;;;2.13;0.30;;;12.30;99.90;;;;;;6104206;23;20427;-94
2023/10/29 06:08:46;;;;;;;2.30;0.30;;;12.70;99.90;;;;;;6104885;23;20748;-95
2023/10/29 06:11:11;;;;;;;1.67;0.22;;;12.40;99.90;;;;;;6105173;23;20407;-94
2023/10/29 06:13:44;;;;;;;2.37;0.30;;;12.20;99.90;;;;;;6102762;23;20437;-95
2023/10/29 06:16:20;;;;;;;1.92;0.20;;;12.10;99.90;;;;;;6103711;23;20771;-95
2023/10/29 06:18:46;;;;;;;1.98;0.20;;;12.10;99.90;;;;;;6102526;23;20375;-94
2023/10/29 06:21:20;;;;;;;3.85;0.30;;;12.10;99.90;;;;;;6127854;23;20860;-95
2023/10/29 06:23:50;;;;;;;1.50;0.20;;;11.90;99.90;;;;;;6101554;23;20709;-96
2023/10/29 06:26:16;;;;;;;1.40;0.20;;;12.00;99.90;;;;;;6103859;23;20399;-95
2023/10/29 06:28:44;;;;;;;2.22;0.17;;;11.90;99.90;;;;;;6101278;23;20367;-95
2023/10/29 06:31:15;;;;;;;2.42;0.20;;;12.00;99.90;;;;;;6128432;23;20737;-93
2023/10/29 06:33:44;;;;;;;1.40;0.17;;;11.80;99.90;;;;;;6104050;23;20378;-95
2023/10/29 06:36:16;;;;;;;1.60;0.13;;;11.80;99.90;;;;;;6106798;23;20383;-94
2023/10/29 06:38:42;;;;;;;1.80;0.20;;;11.80;99.90;;;;;;6108902;23;20375;-93
2023/10/29 06:41:08;;;;;;;3.38;0.30;;;11.80;99.90;;;;;;6105184;23;20827;-94
2023/10/29 06:43:36;;;;;;;1.98;0.28;;;11.90;99.90;;;;;;6105781;23;20386;-95
2023/10/29 06:46:05;;;;;;;2.00;0.30;;;11.90;99.90;;;;;;6106285;23;20456;-94
2023/10/29 06:48:31;;;;;;;3.25;0.40;;;11.90;99.90;;;;;;6101818;23;20908;-92
2023/10/29 06:50:56;;;;;;;3.10;0.40;;;12.00;99.90;;;;;;6102484;23;20438;-90
2023/10/29 06:53:22;;;;;;;3.93;0.30;;;11.40;99.90;;;;;;6101352;23;20898;-95
2023/10/29 06:55:48;;;;;;;3.15;0.30;;;11.90;99.90;;;;;;6102226;23;20386;-93
2023/10/29 06:58:13;;;;;;;2.87;0.30;;;12.00;99.90;;;;;;6103267;23;20379;-91
2023/10/29 07:00:40;;;;;;;3.27;0.37;;;12.10;99.90;;;;;;6100649;23;20375;-94
2023/10/29 07:03:05;;;;;;;4.33;0.33;;;12.30;99.90;;;;;;6102591;23;20371;-91
2023/10/29 07:05:35;;;;;;;4.93;0.30;;;12.40;99.90;;;;;;6127294;23;20395;-92
2023/10/29 07:08:01;;;;;;;4.53;0.30;;;11.80;99.90;;;;;;6101876;23;20379;-91
2023/10/29 07:10:27;;;;;;;2.83;0.20;;;12.30;99.90;;;;;;6101929;23;20409;-94
2023/10/29 07:12:53;;;;;;;2.37;0.30;;;12.20;99.90;;;;;;6108357;23;20374;-93
2023/10/29 07:15:19;;;;;;;4.85;0.35;;;12.60;99.90;;;;;;6105185;23;20452;-93
2023/10/29 07:17:45;;;;;;;4.60;0.43;;;12.50;99.90;;;;;;6106598;23;20371;-92
2023/10/29 07:20:11;;;;;;;2.40;0.27;;;12.50;99.90;;;;;;6099745;23;20379;-94
2023/10/29 07:22:46;;;;;;;4.78;0.32;;;12.40;99.90;;;;;;6106802;23;20375;-94
2023/10/29 07:25:11;;;;;;;3.30;0.40;;;12.70;99.90;;;;;;6102800;23;20386;-94
2023/10/29 07:27:37;;;;;;;3.70;0.22;;;12.60;99.90;;;;;;6105072;23;20378;-93
2023/10/29 07:30:09;;;;;;;3.55;0.30;;;12.60;99.90;;;;;;6102434;23;20372;-95
2023/10/29 07:32:44;;;;;;;4.72;0.40;;;12.50;99.90;;;;;;6099081;23;20414;-94
2023/10/29 07:35:12;;;;;;;4.53;0.35;;;12.50;99.90;;;;;;6104165;23;20379;-94
2023/10/29 07:37:38;;;;;;;4.38;0.32;;;12.50;99.90;;;;;;6099335;23;20517;-93
2023/10/29 07:40:10;;;;;;;4.67;0.50;;;12.70;99.90;;;;;;6095078;23;20375;-94
2023/10/29 07:42:38;;;;;;;3.45;0.40;;;12.50;99.90;;;;;;6098749;23;20371;-91
2023/10/29 07:45:07;;;;;;;3.88;0.30;;;12.90;99.90;;;;;;6103470;23;20416;-93
2023/10/29 07:47:37;;;;;;;2.80;0.30;;;12.60;99.90;;;;;;6106436;23;20903;-95
2023/10/29 07:50:04;;;;;;;4.70;0.50;;;12.50;99.90;;;;;;6106099;23;20370;-94
2023/10/29 07:52:30;;;;;;;4.63;0.50;;;12.60;99.90;;;;;;6104749;23;20403;-93
2023/10/29 07:54:56;;;;;;;5.95;0.35;;;13.00;99.90;;;;;;6103982;23;20450;-95
2023/10/29 07:57:21;;;;;;;4.38;0.35;;;12.70;99.90;;;;;;6099315;23;20387;-94
2023/10/29 07:59:47;;;;;;;4.33;0.40;;;12.90;99.90;;;;;;6104789;23;20371;-93
2023/10/29 08:02:13;;;;;;;3.17;0.30;;;12.10;99.90;;;;;;6104185;23;20402;-95
2023/10/29 08:04:38;;;;;;;3.10;0.55;;;13.30;99.90;;;;;;6101201;23;20422;-94
2023/10/29 08:07:04;;;;;;;3.73;0.23;;;13.20;99.90;;;;;;6105311;23;20422;-92
2023/10/29 08:09:30;;;;;;;4.93;0.30;;;13.00;99.90;;;;;;6101730;23;20430;-96
2023/10/29 08:12:16;;;;;;;4.28;0.40;;;13.10;99.90;;;;;;6098526;23;20469;-95
2023/10/29 08:14:50;;;;;;;3.28;0.30;;;12.90;99.90;;;;;;6099995;23;20375;-95
2023/10/29 08:17:21;;;;;;;5.65;0.30;;;13.40;99.90;;;;;;6105117;23;20736;-93
2023/10/29 08:19:47;;;;;;;3.75;0.70;;;13.30;99.90;;;;;;6104418;23;20375;-95
2023/10/29 08:22:19;;;;;;;6.45;0.50;;;13.00;99.90;;;;;;6101146;23;20378;-94
2023/10/29 08:24:44;;;;;;;4.88;0.60;;;13.00;99.90;;;;;;6098932;23;20375;-93
2023/10/29 08:27:10;;;;;;;4.15;0.40;;;13.10;99.90;;;;;;6094739;23;21262;-94
2023/10/29 08:29:38;;;;;;;5.83;0.50;;;13.30;99.90;;;;;;6098303;23;20378;-91
2023/10/29 08:32:07;;;;;;;5.20;0.50;;;13.70;99.90;;;;;;6102621;23;20386;-95
2023/10/29 08:34:35;;;;;;;5.60;0.43;;;13.60;99.90;;;;;;6102191;23;20375;-95
2023/10/29 08:37:01;;;;;;;6.20;0.40;;;13.80;99.90;;;;;;6103569;23;20379;-95
2023/10/29 08:39:31;;;;;;;4.73;0.40;;;14.20;99.90;;;;;;6100740;23;20379;-94
2023/10/29 08:41:57;;;;;;;5.38;0.30;;;13.90;99.90;;;;;;6103838;23;20402;-95
2023/10/29 08:44:28;;;;;;;4.68;0.30;;;14.00;99.90;;;;;;6100628;23;20371;-94
2023/10/29 08:46:54;;;;;;;8.07;0.63;;;13.80;99.90;;;;;;6104500;23;20482;-93
2023/10/29 08:49:20;;;;;;;5.13;0.65;;;14.00;99.90;;;;;;6105711;23;20782;-95
2023/10/29 08:51:55;;;;;;;4.90;0.37;;;13.70;99.90;;;;;;6101351;23;20394;-92
2023/10/29 08:54:23;;;;;;;5.30;0.40;;;13.90;99.90;;;;;;6097318;23;20879;-94
2023/10/29 08:56:52;;;;;;;5.47;0.43;;;13.30;99.90;;;;;;6124938;23;20856;-93
2023/10/29 08:59:18;;;;;;;4.30;0.57;;;13.70;99.90;;;;;;6102141;23;20437;-93
2023/10/29 09:01:44;;;;;;;6.75;0.50;;;13.20;99.90;;;;;;6100834;23;20405;-95
2023/10/29 09:04:10;;;;;;;5.90;0.40;;;13.60;99.90;;;;;;6101723;23;20395;-93
2023/10/29 09:06:39;;;;;;;4.97;0.50;;;13.40;99.90;;;;;;6102389;23;20399;-94
2023/10/29 09:09:05;;;;;;;7.68;0.70;;;13.50;99.90;;;;;;6102923;23;20371;-94
2023/10/29 09:11:30;;;;;;;5.68;0.80;;;13.40;99.90;;;;;;6097817;23;20374;-94
2023/10/29 09:13:57;;;;;;;5.45;0.35;;;13.40;99.90;;;;;;6103215;23;20398;-92
2023/10/29 09:16:23;;;;;;;4.85;0.40;;;12.90;99.90;;;;;;6098834;23;20402;-93
2023/10/29 09:18:48;;;;;;;6.07;0.27;;;13.50;99.90;;;;;;6100016;23;20374;-93
2023/10/29 09:21:14;;;;;;;4.00;0.40;;;13.20;99.90;;;;;;6100645;23;20372;-92
2023/10/29 09:23:48;;;;;;;4.72;0.40;;;13.10;99.90;;;;;;6100585;23;20382;-94
2023/10/29 09:26:14;;;;;;;3.60;0.25;;;13.20;99.90;;;;;;6101670;23;20410;-93
2023/10/29 09:28:46;;;;;;;3.10;0.20;;;13.20;99.90;;;;;;6107619;23;20371;-94
2023/10/29 09:31:18;;;;;;;4.60;0.40;;;13.60;99.90;;;;;;6102339;23;20792;-94
2023/10/29 09:33:44;;;;;;;4.28;0.50;;;13.80;99.90;;;;;;6099583;23;20422;-94
2023/10/29 09:36:10;;;;;;;4.37;0.37;;;13.30;99.90;;;;;;6099786;23;20371;-92
2023/10/29 09:38:42;;;;;;;4.07;0.30;;;13.90;99.90;;;;;;6101753;23;20462;-94
2023/10/29 09:41:08;;;;;;;3.67;0.30;;;13.70;99.90;;;;;;6104198;23;20378;-91
2023/10/29 09:43:41;;;;;;;4.20;0.30;;;13.70;99.90;;;;;;6101710;23;20428;-94
2023/10/29 09:46:07;;;;;;;3.83;0.28;;;14.40;99.90;;;;;;6105076;23;20474;-94
2023/10/29 09:48:44;;;;;;;5.00;0.30;;;14.50;99.90;;;;;;6102223;23;20379;-94
2023/10/29 09:51:23;;;;;;;4.30;0.30;;;14.40;99.90;;;;;;6129122;23;20543;-95
2023/10/29 09:53:49;;;;;;;4.53;0.38;;;15.00;99.90;;;;;;6104524;23;20367;-93
2023/10/29 09:56:16;;;;;;;4.10;0.40;;;14.40;99.90;;;;;;6108872;23;20383;-94
2023/10/29 09:58:42;;;;;;;4.57;0.40;;;14.70;99.90;;;;;;6106872;23;20927;-93
2023/10/29 10:01:11;;;;;;;4.97;0.50;;;14.80;99.90;;;;;;6106938;23;20458;-95
2023/10/29 10:06:14;;;;;;;5.38;0.30;;;15.10;99.90;;;;;;6217726;23;20402;-93
2023/10/29 10:09:05;;;;;;;3.67;0.30;;;15.10;99.90;;;;;;6166629;23;21268;-95
2023/10/29 10:11:34;;;;;;;3.63;0.40;;;15.10;99.90;;;;;;6165699;23;20379;-94
2023/10/29 10:13:59;;;;;;;4.40;0.47;;;15.00;99.90;;;;;;6162562;23;20763;-93
2023/10/29 10:16:30;;;;;;;4.30;0.40;;;15.10;99.90;;;;;;6164399;23;20375;-96
2023/10/29 10:19:02;;;;;;;3.58;0.30;;;14.90;99.90;;;;;;6162046;23;20367;-94
2023/10/29 10:21:42;;;;;;;4.30;0.40;;;14.90;99.90;;;;;;6163651;23;20435;-93
2023/10/29 10:24:08;;;;;;;4.07;0.50;;;14.80;99.90;;;;;;6160640;23;20381;-93
2023/10/29 10:26:40;;;;;;;5.55;0.60;;;14.60;99.90;;;;;;6187965;23;20392;-94
2023/10/29 10:29:07;;;;;;;3.42;0.30;;;15.00;99.90;;;;;;6168416;23;20368;-92
2023/10/29 10:31:36;;;;;;;5.93;0.60;;;15.10;99.90;;;;;;6186206;23;20368;-95
2023/10/29 10:34:16;;;;;;;3.55;0.40;;;14.90;99.90;;;;;;6160330;23;20418;-93
2023/10/29 10:36:46;;;;;;;3.95;0.45;;;14.60;99.90;;;;;;6160939;23;20462;-94
2023/10/29 10:39:19;;;;;;;4.33;0.47;;;14.90;99.90;;;;;;6163104;23;20438;-93
2023/10/29 10:41:52;;;;;;;4.47;0.50;;;14.50;99.90;;;;;;6158269;23;20372;-94
2023/10/29 10:44:20;;;;;;;5.55;0.50;;;14.20;99.90;;;;;;6164785;23;20375;-93
2023/10/29 10:46:50;;;;;;;3.30;0.45;;;14.60;99.90;;;;;;6160853;23;20395;-91
2023/10/29 10:49:17;;;;;;;6.07;0.40;;;14.50;99.90;;;;;;6185517;23;20380;-93
2023/10/29 10:51:48;;;;;;;3.92;0.52;;;14.00;99.90;;;;;;6159787;23;20379;-94
2023/10/29 10:54:19;;;;;;;4.68;0.60;;;14.40;99.90;;;;;;6188014;23;20377;-93
2023/10/29 10:56:59;;;;;;;5.57;0.40;;;14.40;99.90;;;;;;6167006;23;20678;-93
2023/10/29 10:59:24;;;;;;;5.38;0.50;;;14.50;99.90;;;;;;6170298;23;20433;-93
2023/10/29 11:01:50;;;;;;;6.20;0.40;;;14.10;99.90;;;;;;6169265;23;20372;-95
2023/10/29 11:04:17;;;;;;;4.87;0.60;;;14.20;99.90;;;;;;6170189;23;20395;-94
2023/10/29 11:06:46;;;;;;;4.55;0.40;;;14.10;99.90;;;;;;6162121;23;20407;-92
2023/10/29 11:09:14;;;;;;;4.70;0.40;;;14.30;99.90;;;;;;6187691;23;20372;-92
2023/10/29 11:11:47;;;;;;;3.70;0.40;;;14.60;99.90;;;;;;6164330;23;20868;-94
2023/10/29 11:14:20;;;;;;;7.93;0.90;;;14.10;99.90;;;;;;6168338;23;20370;-93
2023/10/29 11:16:50;;;;;;;5.72;0.43;;;14.50;99.90;;;;;;6188303;23;20367;-92
2023/10/29 11:19:47;;;;;;;5.03;0.40;;;14.70;99.90;;;;;;6162670;23;20384;-92
2023/10/29 11:22:29;;;;;;;6.07;0.63;;;14.80;99.90;;;;;;6161974;23;20375;-93
2023/10/29 11:25:09;;;;;;;5.20;0.40;;;14.90;99.90;;;;;;6192469;23;20920;-94
2023/10/29 11:27:46;;;;;;;5.05;0.60;;;14.80;99.90;;;;;;6176997;23;20398;-94
2023/10/29 11:30:28;;;;;;;5.95;0.50;;;15.00;99.90;;;;;;6199820;23;20382;-92
2023/10/29 11:33:06;;;;;;;4.90;0.40;;;15.00;99.90;;;;;;6169199;23;20382;-94
2023/10/29 11:35:33;;;;;;;4.57;0.40;;;15.20;99.90;;;;;;6169772;23;20395;-94
2023/10/29 11:38:00;;;;;;;3.55;0.40;;;15.30;99.90;;;;;;6191888;23;20458;-93
2023/10/29 11:40:47;;;;;;;6.22;0.70;;;15.30;99.90;;;;;;6193147;23;20406;-96
2023/10/29 11:43:33;;;;;;;6.40;0.70;;;14.70;99.90;;;;;;6173437;23;20391;-94
2023/10/29 11:46:00;;;;;;;5.63;0.45;;;15.50;99.90;;;;;;6165572;23;20729;-93
2023/10/29 11:48:31;;;;;;;6.90;0.43;;;14.80;99.90;;;;;;6196885;23;20368;-95
2023/10/29 11:51:08;;;;;;;6.47;0.85;;;15.10;99.90;;;;;;6171168;23;20363;-93
2023/10/29 11:53:37;;;;;;;5.35;0.40;;;14.80;99.90;;;;;;6191595;23;20860;-94
2023/10/29 11:56:10;;;;;;;6.93;0.77;;;14.80;99.90;;;;;;6189880;23;20406;-92
2023/10/29 11:58:39;;;;;;;6.28;0.65;;;14.70;99.90;;;;;;6190271;23;20372;-96
2023/10/29 12:01:06;;;;;;;6.10;0.50;;;14.60;99.90;;;;;;6212860;23;20397;-94
2023/10/29 12:03:33;;;;;;;5.63;0.43;;;14.50;99.90;;;;;;6186967;23;20376;-94
2023/10/29 12:06:02;;;;;;;6.15;0.50;;;14.60;99.90;;;;;;6177428;23;21172;-93
2023/10/29 12:08:31;;;;;;;5.70;0.43;;;14.40;99.90;;;;;;6162189;23;20382;-94
2023/10/29 12:11:03;;;;;;;5.97;0.50;;;14.80;99.90;;;;;;6198307;23;20378;-96
2023/10/29 12:13:41;;;;;;;6.97;0.60;;;14.50;99.90;;;;;;6188737;23;20364;-95
2023/10/29 12:16:07;;;;;;;6.70;0.50;;;14.60;99.90;;;;;;6157975;23;20439;-95
2023/10/29 12:18:41;;;;;;;5.80;0.60;;;14.40;99.90;;;;;;6161439;23;20368;-95
2023/10/29 12:21:10;;;;;;;5.53;0.75;;;14.50;99.90;;;;;;6166569;23;20372;-96
2023/10/29 12:23:37;;;;;;;6.80;0.70;;;15.00;99.90;;;;;;6167983;23;20399;-96
2023/10/29 12:26:06;;;;;;;5.93;0.57;;;14.80;99.90;;;;;;6160699;23;20868;-94
2023/10/29 12:28:33;;;;;;;6.95;0.68;;;14.60;99.90;;;;;;6158907;23;20372;-93
2023/10/29 12:30:59;;;;;;;6.78;0.70;;;14.60;99.90;;;;;;6166011;23;20375;-94
2023/10/29 12:33:27;;;;;;;6.40;1.02;;;14.40;99.90;;;;;;6159802;23;20372;-93
2023/10/29 12:35:54;;;;;;;6.82;0.73;;;14.50;99.90;;;;;;6185540;23;20374;-93
2023/10/29 12:38:21;;;;;;;8.02;1.05;;;14.50;99.90;;;;;;6183012;23;20399;-96
2023/10/29 12:41:08;;;;;;;6.43;0.77;;;14.60;99.90;;;;;;6160367;23;20368;-94
2023/10/29 12:43:42;;;;;;;8.38;0.70;;;14.50;99.90;;;;;;6163798;23;20401;-95
2023/10/29 12:46:49;;;;;;;5.68;0.57;;;14.50;99.90;;;;;;6162494;23;20395;-94
2023/10/29 12:49:24;;;;;;;8.30;0.90;;;14.50;99.90;;;;;;6169720;23;20380;-95
2023/10/29 12:51:54;;;;;;;7.40;0.70;;;14.40;99.90;;;;;;6165045;23;20406;-92
2023/10/29 12:54:30;;;;;;;8.00;0.73;;;14.50;99.90;;;;;;6202821;23;20355;-95
2023/10/29 12:59:36;;;;;;;6.18;0.85;;;14.60;99.90;;;;;;6201873;22;20889;-95
2023/10/29 13:04:38;;;;;;;6.63;0.80;;;14.50;99.90;;;;;;6229629;23;20408;-92
2023/10/29 13:09:52;;;;;;;6.65;0.75;;;14.60;99.90;;;;;;6218300;23;20417;-95
2023/10/29 13:12:21;;;;;;;8.17;0.60;;;14.50;99.90;;;;;;6190633;23;20472;-94
2023/10/29 13:14:48;;;;;;;8.52;0.85;;;14.50;99.90;;;;;;6192466;23;20367;-94
2023/10/29 13:17:14;;;;;;;7.87;0.90;;;14.50;99.90;;;;;;6188884;23;20372;-92
2023/10/29 13:19:40;;;;;;;7.77;0.90;;;14.40;99.90;;;;;;6187775;23;20374;-95
2023/10/29 13:22:06;;;;;;;9.57;1.00;;;14.40;99.90;;;;;;6185820;23;20395;-94
2023/10/29 13:24:37;;;;;;;7.72;0.98;;;14.40;99.90;;;;;;6192554;23;20441;-95
2023/10/29 13:27:10;;;;;;;7.45;0.70;;;14.40;99.90;;;;;;6195148;23;20387;-96
2023/10/29 13:29:45;;;;;;;8.05;0.80;;;14.40;99.90;;;;;;6193280;23;20371;-95
2023/10/29 13:32:15;;;;;;;8.00;0.90;;;14.40;99.90;;;;;;6196768;23;20383;-94
2023/10/29 13:34:41;;;;;;;8.00;1.00;;;14.50;99.90;;;;;;6187003;23;20383;-94
2023/10/29 13:37:06;;;;;;;6.47;0.77;;;14.50;99.90;;;;;;6188668;23;20380;-94
2023/10/29 13:39:32;;;;;;;8.47;0.90;;;14.60;99.90;;;;;;6194589;23;20382;-94
2023/10/29 13:41:58;;;;;;;7.63;0.60;;;14.90;99.90;;;;;;6194386;23;20372;-95
2023/10/29 13:44:23;;;;;;;7.23;0.77;;;15.00;99.90;;;;;;6191829;23;20912;-94
2023/10/29 13:46:58;;;;;;;9.65;1.20;;;14.70;99.90;;;;;;6187329;23;20483;-95
2023/10/29 13:49:33;;;;;;;5.80;0.70;;;14.70;99.90;;;;;;6191559;23;20478;-94
2023/10/29 13:52:11;;;;;;;8.82;0.90;;;14.70;99.90;;;;;;6217859;23;20692;-95
2023/10/29 13:54:56;;;;;;;8.25;0.63;;;14.30;99.90;;;;;;6195212;23;20438;-94
2023/10/29 13:57:47;;;;;;;7.85;0.90;;;14.90;99.90;;;;;;6132945;23;20424;-95
2023/10/29 14:00:13;;;;;;;7.82;0.75;;;14.50;99.90;;;;;;6047307;23;20434;-95
2023/10/29 14:08:32;;;;;;;8.27;0.93;;;14.40;99.90;;;;;;6125157;23;20392;-94
2023/10/29 14:10:58;;;;;;;9.32;1.00;;;14.30;99.90;;;;;;6090019;23;20483;-94
2023/10/29 14:13:26;;;;;;;7.38;0.70;;;14.50;99.90;;;;;;6147977;23;20756;-96
2023/10/29 14:18:28;;;;;;;7.40;0.80;;;14.20;99.90;;;;;;6251448;23;20920;-94
2023/10/29 14:21:00;;;;;;;9.70;1.00;;;14.30;99.90;;;;;;6196466;23;20369;-94
2023/10/29 14:23:28;;;;;;;7.45;0.80;;;14.00;99.90;;;;;;6191932;23;20444;-93
2023/10/29 14:25:54;;;;;;;8.98;1.30;;;14.00;99.90;;;;;;6187657;23;20440;-94
2023/10/29 14:28:20;;;;;;;7.93;0.97;;;14.00;99.90;;;;;;6192123;23;20374;-96
2023/10/29 14:30:46;;;;;;;8.52;0.95;;;14.00;99.90;;;;;;6199570;23;20366;-95
2023/10/29 14:33:11;;;;;;;6.82;0.80;;;14.20;99.90;;;;;;6191215;23;20370;-95
2023/10/29 14:35:52;;;;;;;9.77;1.10;;;14.20;99.90;;;;;;6193292;23;20373;-94
2023/10/29 14:38:20;;;;;;;8.70;0.93;;;13.90;99.90;;;;;;6196854;23;20362;-94
2023/10/29 14:40:46;;;;;;;8.88;1.00;;;13.90;99.90;;;;;;6189698;23;20843;-95
2023/10/29 14:43:11;;;;;;;6.53;0.80;;;14.60;99.90;;;;;;6191537;23;20380;-93
2023/10/29 14:45:42;;;;;;;10.67;1.00;;;14.00;99.90;;;;;;6188894;23;20390;-91
2023/10/29 14:48:10;;;;;;;9.60;1.17;;;13.90;99.90;;;;;;6214382;23;20362;-93
2023/10/29 14:50:39;;;;;;;7.78;0.70;;;14.10;99.90;;;;;;6191683;23;20381;-95
2023/10/29 14:53:08;;;;;;;7.47;1.13;;;13.90;99.90;;;;;;6186523;23;20362;-95
2023/10/29 14:55:34;;;;;;;6.50;0.90;;;13.70;99.90;;;;;;6190738;23;20419;-94
2023/10/29 14:58:00;;;;;;;8.55;0.80;;;13.80;99.90;;;;;;6190437;23;20374;-94
2023/10/29 15:00:31;;;;;;;8.93;1.00;;;14.10;99.90;;;;;;6188239;23;20373;-96
2023/10/29 15:03:13;;;;;;;9.48;0.85;;;13.80;99.90;;;;;;6193904;23;20366;-96
2023/10/29 15:05:39;;;;;;;7.20;0.95;;;13.80;99.90;;;;;;6192101;23;20394;-94